createdAt,value
2023-03-30T00:01:36.743Z,51.81
2023-03-30T00:04:04.746Z,51.84
2023-03-30T00:06:34.309Z,51.84
2023-03-30T00:09:02.079Z,51.72
2023-03-30T00:11:34.152Z,51.74
2023-03-30T00:14:01.805Z,51.69
2023-03-30T00:16:29.500Z,51.58
2023-03-30T00:18:57.536Z,51.64
2023-03-30T00:21:25.203Z,51.52
2023-03-30T00:23:53.067Z,51.40
2023-03-30T00:26:20.729Z,51.32
2023-03-30T00:28:48.407Z,51.28
2023-03-30T00:31:16.887Z,51.36
2023-03-30T00:33:46.538Z,51.22
2023-03-30T00:36:16.167Z,51.17
2023-03-30T00:38:44.363Z,51.14
2023-03-30T00:41:12.530Z,51.16
2023-03-30T00:43:40.201Z,51.20
2023-03-30T00:46:07.895Z,51.30
2023-03-30T00:48:37.018Z,51.24
2023-03-30T00:51:05.107Z,51.19
2023-03-30T00:53:33.089Z,51.17
2023-03-30T00:56:00.860Z,51.11
2023-03-30T00:58:28.516Z,51.06
2023-03-30T01:00:58.535Z,51.03
2023-03-30T01:03:26.337Z,51.02
2023-03-30T01:05:54.676Z,51.02
2023-03-30T01:08:24.280Z,51.05
2023-03-30T01:10:52.793Z,51.00
2023-03-30T01:13:20.529Z,51.05
2023-03-30T01:15:48.852Z,51.07
2023-03-30T01:18:16.568Z,51.10
2023-03-30T01:20:44.342Z,51.23
2023-03-30T01:23:12.616Z,51.25
2023-03-30T01:25:40.682Z,51.30
2023-03-30T01:28:08.351Z,51.34
2023-03-30T01:30:36.524Z,51.59
2023-03-30T01:33:04.226Z,51.47
2023-03-30T01:35:32.219Z,51.55
2023-03-30T01:37:59.908Z,51.57
2023-03-30T01:40:27.880Z,51.58
2023-03-30T01:42:55.544Z,51.51
2023-03-30T01:45:23.303Z,51.71
2023-03-30T01:47:51.523Z,51.64
2023-03-30T01:50:19.345Z,51.64
2023-03-30T01:52:48.064Z,51.69
2023-03-30T01:55:17.535Z,51.67
2023-03-30T01:57:45.298Z,51.67
2023-03-30T02:00:18.033Z,51.72
2023-03-30T02:02:45.914Z,51.66
2023-03-30T02:05:18.141Z,51.69
2023-03-30T02:07:45.980Z,51.65
2023-03-30T02:10:13.640Z,51.70
2023-03-30T02:12:41.406Z,51.60
2023-03-30T02:15:09.170Z,51.66
2023-03-30T02:17:38.314Z,51.63
2023-03-30T02:20:09.317Z,51.71
2023-03-30T02:22:37.389Z,51.71
2023-03-30T02:25:06.680Z,51.68
2023-03-30T02:27:35.258Z,51.70
2023-03-30T02:30:03.843Z,51.59
2023-03-30T02:32:31.632Z,51.59
2023-03-30T02:34:59.370Z,51.60
2023-03-30T02:37:27.138Z,51.69
2023-03-30T02:39:55.828Z,51.64
2023-03-30T02:42:23.484Z,51.72
2023-03-30T02:44:51.463Z,51.72
2023-03-30T02:47:19.221Z,51.72
2023-03-30T02:49:47.185Z,51.71
2023-03-30T02:52:14.946Z,51.67
2023-03-30T02:54:42.608Z,51.71
2023-03-30T02:57:10.740Z,51.79
2023-03-30T02:59:38.654Z,51.79
2023-03-30T03:02:07.019Z,51.82
2023-03-30T03:04:34.894Z,51.87
2023-03-30T03:07:02.970Z,51.91
2023-03-30T03:09:30.631Z,51.89
2023-03-30T03:11:58.404Z,51.90
2023-03-30T03:14:26.770Z,51.90
2023-03-30T03:16:55.183Z,52.04
2023-03-30T03:19:23.425Z,52.05
2023-03-30T03:21:51.910Z,52.05
2023-03-30T03:24:19.667Z,51.99
2023-03-30T03:26:47.431Z,52.04
2023-03-30T03:29:15.046Z,52.06
2023-03-30T03:31:42.852Z,52.05
2023-03-30T03:34:10.724Z,52.03
2023-03-30T03:36:38.386Z,52.41
2023-03-30T03:39:06.149Z,52.59
2023-03-30T03:41:33.812Z,52.96
2023-03-30T03:44:01.574Z,53.18
2023-03-30T03:46:29.268Z,53.19
2023-03-30T03:48:57.015Z,52.85
2023-03-30T03:51:24.768Z,53.33
2023-03-30T03:53:54.068Z,53.42
2023-03-30T03:56:21.727Z,53.32
2023-03-30T03:58:49.389Z,53.40
2023-03-30T04:01:17.051Z,53.60
2023-03-30T04:03:44.714Z,53.58
2023-03-30T04:06:12.375Z,53.31
2023-03-30T04:08:40.043Z,53.47
2023-03-30T04:11:08.263Z,53.49
2023-03-30T04:13:36.178Z,53.52
2023-03-30T04:16:03.976Z,53.33
2023-03-30T04:18:33.735Z,53.32
2023-03-30T04:21:03.355Z,53.44
2023-03-30T04:23:31.438Z,53.59
2023-03-30T04:26:01.860Z,53.74
2023-03-30T04:28:30.135Z,53.87
2023-03-30T04:30:59.250Z,53.65
2023-03-30T04:33:27.116Z,53.88
2023-03-30T04:35:54.904Z,53.93
2023-03-30T04:38:22.834Z,53.70
2023-03-30T04:40:50.490Z,54.25
2023-03-30T04:43:20.308Z,54.30
2023-03-30T04:45:47.997Z,54.13
2023-03-30T04:48:15.729Z,54.15
2023-03-30T04:50:44.108Z,54.24
2023-03-30T04:53:11.880Z,54.30
2023-03-30T04:55:39.643Z,54.41
2023-03-30T04:58:07.333Z,54.70
2023-03-30T05:00:35.056Z,54.68
2023-03-30T05:03:02.822Z,54.92
2023-03-30T05:05:30.599Z,54.70
2023-03-30T05:07:58.357Z,54.67
2023-03-30T05:10:26.120Z,54.83
2023-03-30T05:12:53.881Z,55.80
2023-03-30T05:15:21.956Z,55.05
2023-03-30T05:17:49.963Z,55.04
2023-03-30T05:20:18.507Z,55.05
2023-03-30T05:22:47.190Z,54.79
2023-03-30T05:25:15.062Z,54.92
2023-03-30T05:27:43.334Z,55.08
2023-03-30T05:30:11.100Z,55.20
2023-03-30T05:32:38.807Z,55.36
2023-03-30T05:35:06.525Z,55.11
2023-03-30T05:37:34.492Z,55.48
2023-03-30T05:40:02.260Z,55.64
2023-03-30T05:42:29.916Z,55.14
2023-03-30T05:44:57.891Z,55.22
2023-03-30T05:47:25.652Z,55.29
2023-03-30T05:49:53.311Z,55.13
2023-03-30T05:52:21.896Z,55.37
2023-03-30T05:54:49.558Z,55.35
2023-03-30T05:57:17.918Z,55.46
2023-03-30T05:59:45.803Z,55.44
2023-03-30T06:02:14.379Z,55.23
2023-03-30T06:04:42.198Z,55.27
2023-03-30T06:07:10.693Z,55.30
2023-03-30T06:09:38.809Z,55.19
2023-03-30T06:12:06.565Z,55.59
2023-03-30T06:14:34.233Z,55.41
2023-03-30T06:17:02.106Z,55.26
2023-03-30T06:19:29.958Z,54.97
2023-03-30T06:21:57.723Z,54.91
2023-03-30T06:24:25.591Z,55.18
2023-03-30T06:26:53.250Z,55.04
2023-03-30T06:29:21.025Z,55.36
2023-03-30T06:31:49.248Z,55.29
2023-03-30T06:34:17.360Z,55.36
2023-03-30T06:36:46.369Z,55.41
2023-03-30T06:39:14.221Z,55.38
2023-03-30T06:41:41.988Z,55.08
2023-03-30T06:44:14.961Z,55.30
2023-03-30T06:46:42.836Z,55.50
2023-03-30T06:49:09.785Z,55.32
2023-03-30T06:51:37.977Z,55.52
2023-03-30T06:54:05.715Z,55.54
2023-03-30T06:56:33.488Z,55.25
2023-03-30T06:59:01.146Z,55.43
2023-03-30T07:01:28.992Z,55.37
2023-03-30T07:03:56.826Z,55.27
2023-03-30T07:06:24.848Z,55.04
2023-03-30T07:08:52.818Z,55.26
2023-03-30T07:11:20.786Z,55.07
2023-03-30T07:13:48.446Z,55.00
2023-03-30T07:16:16.443Z,54.95
2023-03-30T07:18:44.294Z,55.08
2023-03-30T07:21:12.456Z,55.04
2023-03-30T07:23:40.769Z,55.08
2023-03-30T07:26:08.703Z,55.22
2023-03-30T07:28:40.594Z,55.07
2023-03-30T07:31:08.464Z,55.11
2023-03-30T07:33:37.348Z,54.92
2023-03-30T07:36:05.100Z,55.18
2023-03-30T07:38:32.860Z,55.28
2023-03-30T07:41:01.067Z,55.13
2023-03-30T07:43:28.890Z,55.08
2023-03-30T07:45:56.859Z,55.04
2023-03-30T07:48:24.731Z,55.19
2023-03-30T07:50:52.689Z,55.10
2023-03-30T07:53:22.915Z,55.11
2023-03-30T07:55:50.571Z,55.24
2023-03-30T07:58:18.335Z,55.16
2023-03-30T08:00:47.941Z,55.20
2023-03-30T08:03:16.256Z,55.50
2023-03-30T08:05:44.084Z,55.19
2023-03-30T08:08:11.849Z,55.01
2023-03-30T08:10:39.509Z,54.93
2023-03-30T08:13:07.272Z,55.00
2023-03-30T08:15:34.935Z,54.95
2023-03-30T08:18:06.978Z,54.91
2023-03-30T08:20:35.071Z,54.78
2023-03-30T08:23:03.247Z,54.79
2023-03-30T08:25:30.910Z,54.77
2023-03-30T08:27:58.568Z,54.70
2023-03-30T08:30:26.638Z,54.83
2023-03-30T08:32:54.464Z,54.70
2023-03-30T08:35:22.352Z,54.54
2023-03-30T08:37:50.238Z,54.51
2023-03-30T08:40:19.583Z,54.44
2023-03-30T08:42:47.716Z,54.38
2023-03-30T08:45:15.988Z,54.46
2023-03-30T08:47:43.757Z,54.51
2023-03-30T08:50:11.440Z,54.51
2023-03-30T08:52:39.185Z,54.35
2023-03-30T08:55:06.956Z,54.26
2023-03-30T08:57:36.666Z,54.13
2023-03-30T09:00:07.498Z,54.08
2023-03-30T09:02:37.456Z,53.99
2023-03-30T09:05:05.895Z,53.88
2023-03-30T09:07:33.648Z,53.66
2023-03-30T09:10:01.862Z,53.57
2023-03-30T09:12:32.044Z,53.55
2023-03-30T09:14:59.814Z,53.43
2023-03-30T09:17:28.737Z,53.60
2023-03-30T09:19:57.257Z,53.40
2023-03-30T09:22:24.954Z,53.17
2023-03-30T09:24:53.833Z,52.81
2023-03-30T09:27:22.315Z,52.84
2023-03-30T09:29:51.814Z,52.84
2023-03-30T09:32:19.586Z,52.65
2023-03-30T09:34:47.338Z,52.55
2023-03-30T09:37:18.849Z,52.41
2023-03-30T09:39:46.773Z,52.44
2023-03-30T09:42:14.434Z,52.32
2023-03-30T09:44:42.192Z,52.15
2023-03-30T09:47:09.966Z,52.01
2023-03-30T09:49:37.741Z,51.98
2023-03-30T09:52:05.484Z,51.93
2023-03-30T09:54:33.144Z,52.17
2023-03-30T09:57:01.147Z,51.94
2023-03-30T09:59:28.876Z,52.01
2023-03-30T10:01:56.618Z,52.11
2023-03-30T10:04:24.442Z,52.10
2023-03-30T10:06:53.604Z,52.16
2023-03-30T10:09:21.578Z,52.04
2023-03-30T10:11:49.233Z,52.22
2023-03-30T10:14:16.907Z,52.15
2023-03-30T10:16:44.556Z,52.12
2023-03-30T10:19:12.632Z,52.35
2023-03-30T10:21:40.414Z,52.32
2023-03-30T10:24:08.770Z,52.31
2023-03-30T10:26:36.451Z,52.17
2023-03-30T10:29:04.720Z,52.48
2023-03-30T10:31:32.501Z,52.45
2023-03-30T10:34:00.338Z,52.35
2023-03-30T10:36:27.999Z,52.04
2023-03-30T10:38:55.661Z,51.99
2023-03-30T10:41:23.750Z,51.91
2023-03-30T10:43:51.495Z,51.99
2023-03-30T10:46:20.449Z,52.00
2023-03-30T10:48:48.565Z,52.14
2023-03-30T10:51:18.067Z,52.06
2023-03-30T10:53:45.930Z,52.01
2023-03-30T10:56:13.697Z,51.85
2023-03-30T10:58:41.766Z,51.83
2023-03-30T11:01:09.427Z,51.87
2023-03-30T11:03:37.223Z,52.08
2023-03-30T11:06:05.337Z,51.91
2023-03-30T11:08:34.153Z,52.01
2023-03-30T11:11:01.813Z,51.99
2023-03-30T11:13:30.604Z,52.02
2023-03-30T11:15:58.677Z,51.86
2023-03-30T11:18:26.441Z,52.08
2023-03-30T11:20:54.099Z,52.09
2023-03-30T11:23:21.864Z,52.01
2023-03-30T11:25:49.524Z,52.03
2023-03-30T11:28:17.285Z,51.94
2023-03-30T11:30:45.071Z,51.77
2023-03-30T11:33:13.077Z,51.72
2023-03-30T11:35:40.923Z,51.85
2023-03-30T11:38:08.761Z,52.03
2023-03-30T11:40:36.525Z,52.09
2023-03-30T11:43:04.588Z,51.93
2023-03-30T11:45:32.356Z,51.95
2023-03-30T11:48:00.056Z,52.03
2023-03-30T11:50:28.087Z,51.95
2023-03-30T11:52:55.750Z,52.10
2023-03-30T11:55:24.134Z,51.99
2023-03-30T11:57:51.792Z,51.99
2023-03-30T12:00:19.412Z,52.05
2023-03-30T12:02:47.232Z,51.98
2023-03-30T12:05:15.187Z,52.01
2023-03-30T12:07:42.947Z,51.81
2023-03-30T12:10:10.614Z,51.90
2023-03-30T12:12:39.451Z,51.79
2023-03-30T12:15:07.282Z,51.63
2023-03-30T12:17:35.075Z,51.68
2023-03-30T12:20:03.099Z,51.68
2023-03-30T12:22:30.965Z,51.52
2023-03-30T12:24:58.636Z,51.73
2023-03-30T12:27:26.393Z,51.81
2023-03-30T12:32:26.947Z,51.92
2023-03-30T12:34:56.341Z,52.02
2023-03-30T12:37:24.103Z,52.11
2023-03-30T12:39:53.812Z,52.18
2023-03-30T12:42:26.577Z,52.30
2023-03-30T12:44:54.464Z,52.13
2023-03-30T12:47:22.753Z,52.02
2023-03-30T12:49:50.705Z,51.82
2023-03-30T12:52:18.378Z,51.82
2023-03-30T12:54:46.131Z,51.79
2023-03-30T12:57:13.866Z,51.89
2023-03-30T12:59:41.864Z,51.85
2023-03-30T13:02:09.460Z,51.77
2023-03-30T13:04:38.035Z,51.99
2023-03-30T13:07:06.180Z,51.97
2023-03-30T13:09:34.049Z,52.16
2023-03-30T13:12:01.810Z,52.12
2023-03-30T13:14:29.456Z,52.26
2023-03-30T13:16:58.282Z,52.36
2023-03-30T13:19:26.022Z,52.27
2023-03-30T13:21:53.689Z,52.45
2023-03-30T13:24:21.964Z,52.18
2023-03-30T13:26:49.622Z,51.79
2023-03-30T13:29:18.717Z,51.85
2023-03-30T13:31:47.300Z,51.67
2023-03-30T13:34:14.968Z,51.77
2023-03-30T13:36:42.624Z,51.80
2023-03-30T13:39:10.389Z,51.79
2023-03-30T13:41:38.072Z,51.84
2023-03-30T13:44:06.016Z,51.93
2023-03-30T13:46:33.797Z,52.06
2023-03-30T13:49:01.483Z,52.15
2023-03-30T13:51:30.240Z,52.27
2023-03-30T13:53:57.999Z,52.44
2023-03-30T13:56:27.456Z,52.44
2023-03-30T13:58:55.157Z,52.45
2023-03-30T14:01:22.830Z,52.54
2023-03-30T14:03:51.052Z,52.52
2023-03-30T14:06:19.173Z,52.64
2023-03-30T14:08:48.176Z,52.67
2023-03-30T14:11:16.339Z,52.74
2023-03-30T14:13:44.410Z,52.89
2023-03-30T14:16:12.125Z,52.84
2023-03-30T14:18:39.833Z,52.93
2023-03-30T14:21:07.561Z,53.12
2023-03-30T14:23:35.676Z,53.31
2023-03-30T14:26:03.924Z,53.30
2023-03-30T14:28:33.143Z,53.35
2023-03-30T14:31:04.714Z,53.56
2023-03-30T14:33:35.640Z,53.60
2023-03-30T14:36:03.827Z,53.79
2023-03-30T14:38:34.906Z,54.09
2023-03-30T14:41:02.612Z,54.96
2023-03-30T14:43:30.273Z,55.45
2023-03-30T14:45:58.046Z,56.23
2023-03-30T14:48:26.621Z,57.34
2023-03-30T14:50:54.386Z,57.08
2023-03-30T14:53:22.052Z,57.12
2023-03-30T14:55:49.810Z,57.75
2023-03-30T14:58:17.747Z,56.97
2023-03-30T15:00:46.261Z,57.32
2023-03-30T15:03:26.433Z,57.49
2023-03-30T15:06:00.735Z,56.81
2023-03-30T15:08:28.503Z,56.55
2023-03-30T15:10:56.259Z,56.50
2023-03-30T15:13:23.922Z,56.72
2023-03-30T15:15:53.324Z,57.22
2023-03-30T15:18:21.087Z,57.16
2023-03-30T15:20:48.752Z,57.05
2023-03-30T15:23:16.518Z,57.15
2023-03-30T15:25:44.182Z,57.01
2023-03-30T15:28:11.943Z,57.40
2023-03-30T15:30:39.769Z,57.34
2023-03-30T15:33:08.327Z,57.11
2023-03-30T15:35:36.609Z,57.78
2023-03-30T15:38:04.325Z,57.50
2023-03-30T15:40:32.089Z,57.36
2023-03-30T15:42:59.749Z,57.27
2023-03-30T15:45:27.413Z,57.34
2023-03-30T15:47:55.208Z,57.24
2023-03-30T15:50:22.940Z,57.44
2023-03-30T15:52:50.702Z,57.20
2023-03-30T15:55:19.084Z,57.59
2023-03-30T15:57:46.853Z,57.64
2023-03-30T16:00:14.719Z,57.29
2023-03-30T16:02:42.515Z,57.30
2023-03-30T16:05:10.778Z,57.30
2023-03-30T16:07:42.140Z,57.36
2023-03-30T16:10:09.763Z,57.31
2023-03-30T16:12:37.430Z,57.42
2023-03-30T16:15:05.097Z,57.45
2023-03-30T16:17:34.203Z,57.43
2023-03-30T16:20:02.374Z,57.50
2023-03-30T16:22:31.144Z,57.57
2023-03-30T16:24:58.910Z,57.47
2023-03-30T16:27:26.570Z,57.44
2023-03-30T16:29:54.231Z,57.41
2023-03-30T16:32:21.912Z,57.35
2023-03-30T16:34:49.872Z,57.61
2023-03-30T16:37:17.632Z,57.69
2023-03-30T16:39:45.287Z,57.71
2023-03-30T16:42:13.052Z,57.54
2023-03-30T16:44:40.819Z,57.84
2023-03-30T16:47:08.637Z,57.93
2023-03-30T16:49:36.346Z,57.71
2023-03-30T16:52:04.006Z,57.59
2023-03-30T16:54:33.045Z,57.61
2023-03-30T16:57:01.387Z,57.68
2023-03-30T16:59:30.430Z,57.72
2023-03-30T17:01:58.447Z,57.72
2023-03-30T17:04:26.205Z,57.77
2023-03-30T17:06:57.054Z,57.80
2023-03-30T17:09:24.811Z,57.87
2023-03-30T17:11:52.611Z,57.87
2023-03-30T17:14:20.986Z,57.89
2023-03-30T17:16:48.874Z,57.96
2023-03-30T17:19:16.702Z,57.90
2023-03-30T17:21:46.239Z,57.88
2023-03-30T17:24:16.346Z,57.98
2023-03-30T17:26:44.172Z,58.03
2023-03-30T17:29:11.897Z,58.03
2023-03-30T17:31:39.633Z,58.15
2023-03-30T17:34:07.738Z,58.29
2023-03-30T17:36:35.434Z,58.27
2023-03-30T17:39:07.418Z,58.24
2023-03-30T17:41:35.464Z,58.28
2023-03-30T17:44:03.124Z,58.41
2023-03-30T17:46:31.140Z,58.38
2023-03-30T17:49:00.113Z,58.44
2023-03-30T17:51:27.849Z,58.52
2023-03-30T17:53:55.613Z,58.58
2023-03-30T17:56:23.277Z,58.66
2023-03-30T17:58:53.391Z,58.62
2023-03-30T18:01:21.185Z,58.59
2023-03-30T18:03:48.957Z,58.75
2023-03-30T18:06:17.306Z,58.72
2023-03-30T18:08:45.072Z,58.64
2023-03-30T18:11:12.741Z,58.92
2023-03-30T18:13:40.396Z,58.85
2023-03-30T18:16:08.200Z,58.71
2023-03-30T18:18:36.328Z,58.77
2023-03-30T18:21:04.930Z,58.80
2023-03-30T18:23:34.427Z,58.89
2023-03-30T18:26:03.980Z,58.82
2023-03-30T18:28:31.997Z,58.86
2023-03-30T18:31:01.124Z,58.82
2023-03-30T18:33:28.945Z,58.93
2023-03-30T18:35:57.149Z,58.99
2023-03-30T18:38:25.925Z,59.12
2023-03-30T18:40:57.883Z,59.22
2023-03-30T18:43:29.329Z,59.37
2023-03-30T18:46:00.812Z,59.51
2023-03-30T18:48:29.878Z,59.70
2023-03-30T18:50:57.545Z,60.00
2023-03-30T18:53:25.500Z,59.94
2023-03-30T18:55:53.467Z,60.33
2023-03-30T18:58:21.232Z,60.87
2023-03-30T19:00:49.129Z,60.89
2023-03-30T19:03:17.083Z,61.44
2023-03-30T19:05:44.936Z,61.56
2023-03-30T19:08:12.601Z,61.50
2023-03-30T19:10:40.263Z,70.19
2023-03-30T19:13:07.925Z,68.83
2023-03-30T19:15:35.790Z,57.20
2023-03-30T19:18:03.491Z,52.23
2023-03-30T19:20:32.029Z,53.66
2023-03-30T19:22:59.696Z,56.08
2023-03-30T19:25:27.469Z,58.09
2023-03-30T19:28:02.679Z,58.17
2023-03-30T19:30:33.098Z,59.09
2023-03-30T19:33:02.285Z,59.37
2023-03-30T19:35:30.138Z,60.99
2023-03-30T19:37:57.955Z,67.41
2023-03-30T19:40:25.734Z,64.50
2023-03-30T19:42:53.553Z,54.80
2023-03-30T19:45:21.363Z,53.20
2023-03-30T19:47:49.157Z,55.36
2023-03-30T19:50:18.248Z,56.66
2023-03-30T19:52:48.868Z,58.00
2023-03-30T19:55:16.927Z,59.72
2023-03-30T19:57:44.576Z,60.54
2023-03-30T20:00:18.329Z,60.93
2023-03-30T20:02:46.391Z,61.57
2023-03-30T20:05:16.057Z,68.24
2023-03-30T20:07:44.030Z,65.56
2023-03-30T20:10:11.689Z,55.31
2023-03-30T20:12:39.660Z,53.96
2023-03-30T20:15:08.953Z,56.32
2023-03-30T20:17:37.060Z,58.73
2023-03-30T20:20:07.387Z,60.25
2023-03-30T20:22:35.338Z,60.74
2023-03-30T20:25:02.993Z,66.87
2023-03-30T20:27:31.157Z,63.52
2023-03-30T20:29:58.826Z,54.30
2023-03-30T20:32:26.506Z,53.61
2023-03-30T20:34:54.268Z,55.83
2023-03-30T20:37:22.021Z,57.68
2023-03-30T20:39:50.724Z,59.50
2023-03-30T20:42:18.453Z,62.46
2023-03-30T20:44:50.439Z,68.41
2023-03-30T20:47:18.492Z,59.40
2023-03-30T20:49:46.465Z,53.43
2023-03-30T20:52:14.143Z,54.85
2023-03-30T20:54:42.502Z,57.55
2023-03-30T20:57:10.183Z,59.91
2023-03-30T20:59:38.032Z,61.31
2023-03-30T21:02:05.910Z,61.56
2023-03-30T21:04:34.032Z,67.50
2023-03-30T21:07:01.847Z,63.86
2023-03-30T21:09:29.605Z,54.40
2023-03-30T21:11:57.377Z,53.89
2023-03-30T21:14:25.127Z,56.95
2023-03-30T21:16:52.843Z,58.98
2023-03-30T21:19:20.764Z,59.74
2023-03-30T21:21:48.433Z,61.12
2023-03-30T21:24:17.105Z,66.90
2023-03-30T21:26:44.770Z,63.33
2023-03-30T21:29:12.567Z,53.76
2023-03-30T21:31:40.404Z,53.81
2023-03-30T21:34:09.490Z,56.50
2023-03-30T21:36:37.387Z,58.58
2023-03-30T21:39:05.225Z,60.13
2023-03-30T21:41:32.885Z,60.97
2023-03-30T21:44:00.557Z,66.77
2023-03-30T21:46:28.441Z,63.12
2023-03-30T21:48:56.283Z,54.21
2023-03-30T21:51:23.970Z,53.53
2023-03-30T21:53:51.909Z,56.61
2023-03-30T21:56:19.579Z,58.35
2023-03-30T21:58:47.434Z,60.66
2023-03-30T22:01:15.102Z,62.08
2023-03-30T22:03:43.172Z,67.96
2023-03-30T22:06:11.049Z,63.80
2023-03-30T22:08:38.801Z,54.38
2023-03-30T22:11:06.458Z,53.85
2023-03-30T22:13:34.133Z,56.55
2023-03-30T22:16:01.936Z,58.64
2023-03-30T22:18:29.650Z,60.28
2023-03-30T22:20:57.616Z,62.07
2023-03-30T22:23:25.379Z,67.81
2023-03-30T22:25:53.055Z,62.85
2023-03-30T22:28:20.776Z,53.79
2023-03-30T22:30:48.470Z,53.83
2023-03-30T22:33:17.566Z,56.82
2023-03-30T22:35:45.359Z,59.01
2023-03-30T22:38:13.093Z,60.34
2023-03-30T22:40:42.110Z,61.48
2023-03-30T22:43:09.856Z,67.14
2023-03-30T22:45:37.656Z,61.87
2023-03-30T22:48:05.512Z,53.40
2023-03-30T22:50:34.131Z,53.74
2023-03-30T22:53:01.838Z,56.66
2023-03-30T22:55:29.602Z,58.52
2023-03-30T22:57:57.877Z,60.15
2023-03-30T23:00:25.749Z,60.18
2023-03-30T23:02:53.489Z,66.78
2023-03-30T23:05:23.312Z,63.05
2023-03-30T23:07:51.381Z,53.86
2023-03-30T23:10:19.143Z,53.66
2023-03-30T23:12:46.908Z,56.35
2023-03-30T23:15:14.669Z,58.60
2023-03-30T23:17:43.402Z,60.50
2023-03-30T23:20:11.733Z,61.50
2023-03-30T23:22:39.510Z,66.98
2023-03-30T23:25:07.268Z,62.06
2023-03-30T23:27:35.031Z,53.17
2023-03-30T23:30:02.894Z,53.61
2023-03-30T23:32:30.689Z,56.42
2023-03-30T23:34:58.419Z,58.57
2023-03-30T23:37:26.594Z,60.34
2023-03-30T23:39:54.225Z,61.43
2023-03-30T23:42:22.864Z,66.92
2023-03-30T23:44:50.605Z,62.14
2023-03-30T23:47:18.676Z,53.38
2023-03-30T23:49:46.442Z,53.73
2023-03-30T23:52:14.298Z,56.22
2023-03-30T23:54:41.970Z,58.14
2023-03-30T23:57:09.927Z,59.50
2023-03-30T23:59:37.723Z,60.59
